createdAt,value
2018-04-13T00:00:11.344Z,31.50
2018-04-13T00:00:45.213Z,29.70
2018-04-13T00:01:19.070Z,31.35
2018-04-13T00:01:52.921Z,31.65
2018-04-13T00:02:26.803Z,32.10
2018-04-13T00:03:00.681Z,31.70
2018-04-13T00:03:34.708Z,31.50
2018-04-13T00:04:08.607Z,31.45
2018-04-13T00:04:42.487Z,30.15
2018-04-13T00:05:16.335Z,30.30
2018-04-13T00:05:50.196Z,31.58
2018-04-13T00:06:24.351Z,30.23
2018-04-13T00:06:58.326Z,31.02
2018-04-13T00:07:32.186Z,29.73
2018-04-13T00:08:06.089Z,29.65
2018-04-13T00:08:39.957Z,30.67
2018-04-13T00:09:14.780Z,31.00
2018-04-13T00:09:48.638Z,29.80
2018-04-13T00:10:22.493Z,30.48
2018-04-13T00:10:56.360Z,28.65
2018-04-13T00:11:30.235Z,30.17
2018-04-13T00:12:04.104Z,29.00
2018-04-13T00:12:37.988Z,29.70
2018-04-13T00:13:11.918Z,30.25
2018-04-13T00:13:45.795Z,30.23
2018-04-13T00:14:19.661Z,30.70
2018-04-13T00:14:53.524Z,30.45
2018-04-13T00:15:27.396Z,30.65
2018-04-13T00:16:01.259Z,30.70
2018-04-13T00:16:35.346Z,32.50
2018-04-13T00:17:09.220Z,29.92
2018-04-13T00:17:43.084Z,31.15
2018-04-13T00:18:16.965Z,31.85
2018-04-13T00:18:50.848Z,31.20
2018-04-13T00:19:24.777Z,30.23
2018-04-13T00:19:58.654Z,31.05
2018-04-13T00:20:32.533Z,30.70
2018-04-13T00:21:06.916Z,30.90
2018-04-13T00:21:40.799Z,29.65
2018-04-13T00:22:14.732Z,31.17
2018-04-13T00:22:48.618Z,29.45
2018-04-13T00:23:22.708Z,31.52
2018-04-13T00:23:56.603Z,29.37
2018-04-13T00:24:30.471Z,31.10
2018-04-13T00:25:04.345Z,31.62
2018-04-13T00:25:38.210Z,29.63
2018-04-13T00:26:12.103Z,30.52
2018-04-13T00:26:46.040Z,30.35
2018-04-13T00:27:19.918Z,32.33
2018-04-13T00:28:34.264Z,30.10
2018-04-13T00:29:08.179Z,29.48
2018-04-13T00:29:42.148Z,30.48
2018-04-13T00:30:16.019Z,29.75
2018-04-13T00:30:49.872Z,32.55
2018-04-13T00:31:23.751Z,30.30
2018-04-13T00:31:57.716Z,31.23
2018-04-13T00:32:31.647Z,30.50
2018-04-13T00:33:05.626Z,31.80
2018-04-13T00:33:39.509Z,29.77
2018-04-13T00:34:13.392Z,30.55
2018-04-13T00:34:47.275Z,30.23
2018-04-13T00:35:21.152Z,28.85
2018-04-13T00:35:55.044Z,30.73
2018-04-13T00:36:29.104Z,30.70
2018-04-13T00:37:02.975Z,30.88
2018-04-13T00:37:36.879Z,30.65
2018-04-13T00:38:10.733Z,30.95
2018-04-13T00:38:44.685Z,29.85
2018-04-13T00:39:18.604Z,30.35
2018-04-13T00:39:52.471Z,30.17
2018-04-13T00:40:26.365Z,29.67
2018-04-13T00:41:00.224Z,30.85
2018-04-13T00:41:34.674Z,30.98
2018-04-13T00:42:08.547Z,32.00
2018-04-13T00:42:42.425Z,29.92
2018-04-13T00:43:16.292Z,30.90
2018-04-13T00:43:50.167Z,30.65
2018-04-13T00:44:24.047Z,29.87
2018-04-13T00:44:57.928Z,30.90
2018-04-13T00:45:31.833Z,29.80
2018-04-13T00:46:05.723Z,29.05
2018-04-13T00:46:39.605Z,29.05
2018-04-13T00:47:13.468Z,28.98
2018-04-13T00:47:47.347Z,29.48
2018-04-13T00:48:21.306Z,29.58
2018-04-13T00:48:55.172Z,31.90
2018-04-13T00:49:29.256Z,29.80
2018-04-13T00:50:03.124Z,29.73
2018-04-13T00:50:36.988Z,29.65
2018-04-13T00:51:10.851Z,27.60
2018-04-13T00:51:44.886Z,30.12
2018-04-13T00:52:18.781Z,30.00
2018-04-13T00:52:58.587Z,27.00
2018-04-13T00:53:32.444Z,29.45
2018-04-13T00:54:06.317Z,29.15
2018-04-13T00:54:40.223Z,30.42
2018-04-13T00:55:14.103Z,29.80
2018-04-13T00:55:47.962Z,31.83
2018-04-13T00:56:21.836Z,29.85
2018-04-13T00:56:56.156Z,29.17
2018-04-13T00:57:30.142Z,28.55
2018-04-13T00:58:04.011Z,30.05
2018-04-13T00:58:37.876Z,30.23
2018-04-13T00:59:11.753Z,28.85
2018-04-13T00:59:45.700Z,30.08
2018-04-13T01:00:19.815Z,29.75
2018-04-13T01:00:53.868Z,30.80
2018-04-13T01:01:27.744Z,32.38
2018-04-13T01:02:01.760Z,28.38
2018-04-13T01:02:35.655Z,28.35
2018-04-13T01:03:09.511Z,30.77
2018-04-13T01:03:43.411Z,29.37
2018-04-13T01:04:17.276Z,28.35
2018-04-13T01:04:51.369Z,29.30
2018-04-13T01:05:25.468Z,27.87
2018-04-13T01:05:59.444Z,28.85
2018-04-13T01:06:33.333Z,29.80
2018-04-13T01:07:07.195Z,28.10
2018-04-13T01:07:41.060Z,30.62
2018-04-13T01:08:14.919Z,30.25
2018-04-13T01:08:48.785Z,28.48
2018-04-13T01:09:22.654Z,28.70
2018-04-13T01:09:56.714Z,29.65
2018-04-13T01:10:30.575Z,29.67
2018-04-13T01:11:04.445Z,28.05
2018-04-13T01:11:38.310Z,27.83
2018-04-13T01:12:12.173Z,27.27
2018-04-13T01:12:46.032Z,28.08
2018-04-13T01:13:19.903Z,29.75
2018-04-13T01:13:53.772Z,29.00
2018-04-13T01:14:27.740Z,26.75
2018-04-13T01:15:01.622Z,27.58
2018-04-13T01:15:35.506Z,28.38
2018-04-13T01:16:09.371Z,30.35
2018-04-13T01:16:43.233Z,29.95
2018-04-13T01:17:17.096Z,28.77
2018-04-13T01:17:50.956Z,27.27
2018-04-13T01:18:24.847Z,29.45
2018-04-13T01:18:58.721Z,30.15
2018-04-13T01:19:32.603Z,29.08
2018-04-13T01:20:06.610Z,28.02
2018-04-13T01:20:40.478Z,27.98
2018-04-13T01:21:14.429Z,29.50
2018-04-13T01:21:48.293Z,26.87
2018-04-13T01:22:22.212Z,29.08
2018-04-13T01:22:56.080Z,28.25
2018-04-13T01:23:29.982Z,27.90
2018-04-13T01:24:03.851Z,29.48
2018-04-13T01:24:37.774Z,28.15
2018-04-13T01:25:11.679Z,27.73
2018-04-13T01:25:45.549Z,29.73
2018-04-13T01:26:19.424Z,28.73
2018-04-13T01:26:53.292Z,28.45
2018-04-13T01:27:27.158Z,27.65
2018-04-13T01:28:01.004Z,28.05
2018-04-13T01:28:34.915Z,26.83
2018-04-13T01:29:08.788Z,27.05
2018-04-13T01:29:42.849Z,27.95
2018-04-13T01:30:16.741Z,28.50
2018-04-13T01:30:50.617Z,27.42
2018-04-13T01:31:24.598Z,28.27
2018-04-13T01:31:58.470Z,28.60
2018-04-13T01:32:32.423Z,27.80
2018-04-13T01:33:06.287Z,27.70
2018-04-13T01:33:40.164Z,27.13
2018-04-13T01:34:14.420Z,27.20
2018-04-13T01:34:48.612Z,26.95
2018-04-13T01:35:22.484Z,28.20
2018-04-13T01:35:56.368Z,27.10
2018-04-13T01:36:30.241Z,28.00
2018-04-13T01:37:04.126Z,28.08
2018-04-13T01:37:38.006Z,26.77
2018-04-13T01:38:11.886Z,27.98
2018-04-13T01:38:45.758Z,28.00
2018-04-13T01:39:19.623Z,27.70
2018-04-13T01:39:53.576Z,29.02
2018-04-13T01:40:27.455Z,28.48
2018-04-13T01:41:01.453Z,28.40
2018-04-13T01:41:35.312Z,29.00
2018-04-13T01:42:09.167Z,28.27
2018-04-13T01:42:43.045Z,28.73
2018-04-13T01:43:16.910Z,27.92
2018-04-13T01:43:50.800Z,27.90
2018-04-13T01:44:24.930Z,27.23
2018-04-13T01:44:59.144Z,28.30
2018-04-13T01:45:33.051Z,27.98
2018-04-13T01:46:07.229Z,24.63
2018-04-13T01:46:41.092Z,27.92
2018-04-13T01:47:15.030Z,27.15
2018-04-13T01:47:48.925Z,27.13
2018-04-13T01:48:22.935Z,29.15
2018-04-13T01:48:56.804Z,28.50
2018-04-13T01:49:30.675Z,26.50
2018-04-13T01:50:04.598Z,25.90
2018-04-13T01:50:38.543Z,27.30
2018-04-13T01:51:12.506Z,27.73
2018-04-13T01:51:46.375Z,27.65
2018-04-13T01:52:20.236Z,27.50
2018-04-13T01:52:54.281Z,28.12
2018-04-13T01:53:28.162Z,28.60
2018-04-13T01:54:02.083Z,28.83
2018-04-13T01:54:35.948Z,28.62
2018-04-13T01:55:09.819Z,29.95
2018-04-13T01:55:43.688Z,28.23
2018-04-13T01:56:17.558Z,26.02
2018-04-13T01:56:51.422Z,28.98
2018-04-13T01:57:25.301Z,29.15
2018-04-13T01:57:59.163Z,29.35
2018-04-13T01:58:33.036Z,29.73
2018-04-13T01:59:06.910Z,27.30
2018-04-13T01:59:40.774Z,28.23
2018-04-13T02:00:14.638Z,29.55
2018-04-13T02:00:48.532Z,27.60
2018-04-13T02:01:22.380Z,28.35
2018-04-13T02:01:56.241Z,28.70
2018-04-13T02:02:30.109Z,28.80
2018-04-13T02:03:03.972Z,27.27
2018-04-13T02:03:37.835Z,28.10
2018-04-13T02:04:11.703Z,27.65
2018-04-13T02:04:45.569Z,27.75
2018-04-13T02:05:19.452Z,28.58
2018-04-13T02:05:53.341Z,27.37
2018-04-13T02:06:27.358Z,28.42
2018-04-13T02:07:01.225Z,26.58
2018-04-13T02:07:35.093Z,28.62
2018-04-13T02:08:08.981Z,28.58
2018-04-13T02:08:42.838Z,27.65
2018-04-13T02:09:16.695Z,27.83
2018-04-13T02:09:50.588Z,29.30
2018-04-13T02:10:24.472Z,27.27
2018-04-13T02:10:58.345Z,29.60
2018-04-13T02:11:32.212Z,28.90
2018-04-13T02:12:06.076Z,29.00
2018-04-13T02:12:39.943Z,29.42
2018-04-13T02:13:13.811Z,29.42
2018-04-13T02:13:47.667Z,28.45
2018-04-13T02:14:21.690Z,28.45
2018-04-13T02:14:55.584Z,28.75
2018-04-13T02:15:29.455Z,27.95
2018-04-13T02:16:03.338Z,29.55
2018-04-13T02:16:37.204Z,29.52
2018-04-13T02:17:11.077Z,30.37
2018-04-13T02:17:44.945Z,29.20
2018-04-13T02:18:18.813Z,29.50
2018-04-13T02:18:52.679Z,28.17
2018-04-13T02:19:26.556Z,28.45
2018-04-13T02:20:00.434Z,28.25
2018-04-13T02:20:34.315Z,30.33
2018-04-13T02:21:08.227Z,28.58
2018-04-13T02:21:42.092Z,28.50
2018-04-13T02:22:15.985Z,28.67
2018-04-13T02:22:49.864Z,28.65
2018-04-13T02:23:23.726Z,28.20
2018-04-13T02:23:57.600Z,28.90
2018-04-13T02:24:31.483Z,28.83
2018-04-13T02:25:05.993Z,29.30
2018-04-13T02:25:39.865Z,29.87
2018-04-13T02:26:13.784Z,30.02
2018-04-13T02:26:47.640Z,30.00
2018-04-13T02:27:21.503Z,29.40
2018-04-13T02:27:55.584Z,30.35
2018-04-13T02:28:29.592Z,27.55
2018-04-13T02:29:03.474Z,30.33
2018-04-13T02:29:37.331Z,30.55
2018-04-13T02:30:11.212Z,30.10
2018-04-13T02:30:45.071Z,26.77
2018-04-13T02:31:18.950Z,27.58
2018-04-13T02:31:52.837Z,28.85
2018-04-13T02:32:26.708Z,29.10
2018-04-13T02:33:00.571Z,27.73
2018-04-13T02:33:34.436Z,30.17
2018-04-13T02:34:08.324Z,28.35
2018-04-13T02:34:42.264Z,29.17
2018-04-13T02:35:16.077Z,28.85
2018-04-13T02:35:49.953Z,29.35
2018-04-13T02:36:23.843Z,28.58
2018-04-13T02:36:57.712Z,29.17
2018-04-13T02:37:31.585Z,30.25
2018-04-13T02:38:05.458Z,28.60
2018-04-13T02:38:39.361Z,29.55
2018-04-13T02:39:13.404Z,27.92
2018-04-13T02:39:47.279Z,29.75
2018-04-13T02:40:21.136Z,29.95
2018-04-13T02:40:55.003Z,29.95
2018-04-13T02:41:28.867Z,30.17
2018-04-13T02:42:02.743Z,28.70
2018-04-13T02:42:36.604Z,31.08
2018-04-13T02:43:10.465Z,30.27
2018-04-13T02:43:44.448Z,28.50
2018-04-13T02:44:18.309Z,27.77
2018-04-13T02:44:52.351Z,28.48
2018-04-13T02:45:26.233Z,29.30
2018-04-13T02:46:00.097Z,30.70
2018-04-13T02:46:34.317Z,28.30
2018-04-13T02:47:08.200Z,28.90
2018-04-13T02:47:42.065Z,30.60
2018-04-13T02:48:15.937Z,29.52
2018-04-13T02:48:49.915Z,29.50
2018-04-13T02:49:23.791Z,30.40
2018-04-13T02:49:57.664Z,30.12
2018-04-13T02:50:31.537Z,30.25
2018-04-13T02:51:05.522Z,28.98
2018-04-13T02:51:39.539Z,32.28
2018-04-13T02:52:13.408Z,29.70
2018-04-13T02:52:47.280Z,29.65
2018-04-13T02:53:21.138Z,30.08
2018-04-13T02:53:55.083Z,31.77
2018-04-13T02:54:28.966Z,28.87
2018-04-13T02:55:02.871Z,31.30
2018-04-13T02:55:36.747Z,31.25
2018-04-13T02:56:10.664Z,30.20
2018-04-13T02:56:44.533Z,28.15
2018-04-13T02:57:18.396Z,30.37
2018-04-13T02:57:52.362Z,29.37
2018-04-13T02:58:26.264Z,29.63
2018-04-13T02:59:00.145Z,30.92
2018-04-13T02:59:34.024Z,31.12
2018-04-13T03:00:07.919Z,30.12
2018-04-13T03:00:41.786Z,29.05
2018-04-13T03:01:15.726Z,31.77
2018-04-13T03:01:49.879Z,29.02
2018-04-13T03:02:23.783Z,29.80
2018-04-13T03:02:57.711Z,28.52
2018-04-13T03:03:31.610Z,30.20
2018-04-13T03:04:05.495Z,29.65
2018-04-13T03:04:39.360Z,30.12
2018-04-13T03:05:13.278Z,28.77
2018-04-13T03:05:47.654Z,30.83
2018-04-13T03:06:21.687Z,29.52
2018-04-13T03:06:55.560Z,30.50
2018-04-13T03:07:29.412Z,28.80
2018-04-13T03:08:03.285Z,30.58
2018-04-13T03:08:37.268Z,30.73
2018-04-13T03:09:11.488Z,28.50
2018-04-13T03:09:45.366Z,29.17
2018-04-13T03:10:19.238Z,29.25
2018-04-13T03:10:53.364Z,27.67
2018-04-13T03:11:27.389Z,31.15
2018-04-13T03:12:01.287Z,28.02
2018-04-13T03:12:35.146Z,29.87
2018-04-13T03:13:09.239Z,30.02
2018-04-13T03:13:43.104Z,28.58
2018-04-13T03:14:16.964Z,27.83
2018-04-13T03:14:50.832Z,29.52
2018-04-13T03:15:24.709Z,29.75
2018-04-13T03:15:58.601Z,29.45
2018-04-13T03:16:32.486Z,29.40
2018-04-13T03:17:06.360Z,28.35
2018-04-13T03:17:40.231Z,28.87
2018-04-13T03:18:14.120Z,28.38
2018-04-13T03:18:48.046Z,29.30
2018-04-13T03:19:21.932Z,30.58
2018-04-13T03:19:55.806Z,29.40
2018-04-13T03:20:29.667Z,29.45
2018-04-13T03:21:03.705Z,30.58
2018-04-13T03:21:37.592Z,28.90
2018-04-13T03:22:11.462Z,28.95
2018-04-13T03:22:45.327Z,29.92
2018-04-13T03:23:19.215Z,27.75
2018-04-13T03:23:53.189Z,28.70
2018-04-13T03:24:27.058Z,29.02
2018-04-13T03:25:00.954Z,27.30
2018-04-13T03:25:35.179Z,27.35
2018-04-13T03:26:09.051Z,30.83
2018-04-13T03:26:42.913Z,28.87
2018-04-13T03:27:16.799Z,29.67
2018-04-13T03:27:50.665Z,30.40
2018-04-13T03:28:24.543Z,28.35
2018-04-13T03:28:58.422Z,29.27
2018-04-13T03:29:32.305Z,29.75
2018-04-13T03:30:06.168Z,27.62
2018-04-13T03:30:40.067Z,28.58
2018-04-13T03:31:13.992Z,29.40
2018-04-13T03:31:48.005Z,28.40
2018-04-13T03:32:21.895Z,28.67
2018-04-13T03:32:55.758Z,29.30
2018-04-13T03:33:29.608Z,28.98
2018-04-13T03:34:03.490Z,28.75
2018-04-13T03:34:37.379Z,28.35
2018-04-13T03:35:11.251Z,28.58
2018-04-13T03:35:45.124Z,27.20
2018-04-13T03:36:18.989Z,29.75
2018-04-13T03:36:52.963Z,28.25
2018-04-13T03:37:26.968Z,29.45
2018-04-13T03:38:00.859Z,30.02
2018-04-13T03:38:34.725Z,28.45
2018-04-13T03:39:08.586Z,28.85
2018-04-13T03:39:42.453Z,29.42
2018-04-13T03:40:16.542Z,28.10
2018-04-13T03:40:50.529Z,26.92
2018-04-13T03:41:24.388Z,28.58
2018-04-13T03:41:58.260Z,29.67
2018-04-13T03:42:32.153Z,28.80
2018-04-13T03:43:06.019Z,28.87
2018-04-13T03:43:40.017Z,28.00
2018-04-13T03:44:13.885Z,28.38
2018-04-13T03:44:48.622Z,27.00
2018-04-13T03:45:22.560Z,28.58
2018-04-13T03:45:56.468Z,29.15
2018-04-13T03:46:30.613Z,28.20
2018-04-13T03:47:04.525Z,27.17
2018-04-13T03:47:38.408Z,28.55
2018-04-13T03:48:12.298Z,29.12
2018-04-13T03:48:46.172Z,28.10
2018-04-13T03:49:20.035Z,28.30
2018-04-13T03:49:53.914Z,28.58
2018-04-13T03:50:28.015Z,31.35
2018-04-13T03:51:01.875Z,28.87
2018-04-13T03:51:35.856Z,28.30
2018-04-13T03:52:09.736Z,29.37
2018-04-13T03:52:43.632Z,29.52
2018-04-13T03:53:17.526Z,27.08
2018-04-13T03:53:51.376Z,28.85
2018-04-13T03:54:25.591Z,29.60
2018-04-13T03:54:59.432Z,28.40
2018-04-13T03:55:33.302Z,30.05
2018-04-13T03:56:07.217Z,28.23
2018-04-13T03:56:41.083Z,29.60
2018-04-13T03:57:14.974Z,27.92
2018-04-13T03:57:48.851Z,27.45
2018-04-13T03:58:22.718Z,28.80
2018-04-13T03:58:56.735Z,29.05
2018-04-13T03:59:30.596Z,28.42
2018-04-13T04:00:04.479Z,29.10
2018-04-13T04:00:38.347Z,28.52
2018-04-13T04:01:12.207Z,28.20
2018-04-13T04:01:46.076Z,28.48
2018-04-13T04:02:19.947Z,28.83
2018-04-13T04:02:53.904Z,28.15
2018-04-13T04:03:27.786Z,28.20
2018-04-13T04:04:01.784Z,29.30
2018-04-13T04:04:35.840Z,28.45
2018-04-13T04:05:09.712Z,28.35
2018-04-13T04:05:43.576Z,27.37
2018-04-13T04:06:17.559Z,30.25
2018-04-13T04:06:51.424Z,28.77
2018-04-13T04:07:25.557Z,27.58
2018-04-13T04:07:59.420Z,27.87
2018-04-13T04:08:33.886Z,27.00
2018-04-13T04:09:07.764Z,28.87
2018-04-13T04:09:41.621Z,28.05
2018-04-13T04:10:15.492Z,28.62
2018-04-13T04:10:49.445Z,27.55
2018-04-13T04:11:23.306Z,28.15
2018-04-13T04:11:57.186Z,26.92
2018-04-13T04:12:31.056Z,27.10
2018-04-13T04:13:04.956Z,29.17
2018-04-13T04:13:38.839Z,27.87
2018-04-13T04:14:12.709Z,28.52
2018-04-13T04:14:46.715Z,28.17
2018-04-13T04:15:20.582Z,28.33
2018-04-13T04:15:54.459Z,27.08
2018-04-13T04:16:28.332Z,29.05
2018-04-13T04:17:02.211Z,27.42
2018-04-13T04:17:36.072Z,29.50
2018-04-13T04:18:09.965Z,29.42
2018-04-13T04:18:43.821Z,29.50
2018-04-13T04:19:17.696Z,27.40
2018-04-13T04:19:57.399Z,27.13
2018-04-13T04:20:37.126Z,28.38
2018-04-13T04:21:16.860Z,27.85
2018-04-13T04:21:56.692Z,26.23
2018-04-13T04:22:36.392Z,26.15
2018-04-13T04:23:16.364Z,26.90
2018-04-13T04:23:56.108Z,28.50
2018-04-13T04:24:38.655Z,26.02
2018-04-13T04:25:16.177Z,29.20
2018-04-13T04:25:56.021Z,26.35
2018-04-13T04:26:35.677Z,27.90
2018-04-13T04:27:09.555Z,27.73
2018-04-13T04:27:43.431Z,26.70
2018-04-13T04:28:17.344Z,28.30
2018-04-13T04:28:51.219Z,27.73
2018-04-13T04:29:25.093Z,26.00
2018-04-13T04:29:59.029Z,28.00
2018-04-13T04:30:33.028Z,27.83
2018-04-13T04:31:06.886Z,27.90
2018-04-13T04:31:40.756Z,28.40
2018-04-13T04:32:14.651Z,26.73
2018-04-13T04:32:48.507Z,29.42
2018-04-13T04:33:22.396Z,27.15
2018-04-13T04:33:56.258Z,25.35
2018-04-13T04:34:30.150Z,27.75
2018-04-13T04:35:04.028Z,27.58
2018-04-13T04:35:37.894Z,26.62
2018-04-13T04:36:11.760Z,27.40
2018-04-13T04:36:45.638Z,26.92
2018-04-13T04:37:19.511Z,26.62
2018-04-13T04:37:53.379Z,27.65
2018-04-13T04:38:27.272Z,27.30
2018-04-13T04:39:01.140Z,26.45
2018-04-13T04:39:35.015Z,27.55
2018-04-13T04:40:08.884Z,28.50
2018-04-13T04:40:42.940Z,27.73
2018-04-13T04:41:16.796Z,28.73
2018-04-13T04:41:50.830Z,28.85
2018-04-13T04:42:24.712Z,28.05
2018-04-13T04:42:58.584Z,28.12
2018-04-13T04:43:32.493Z,28.42
2018-04-13T04:44:06.395Z,27.08
2018-04-13T04:44:40.267Z,25.83
2018-04-13T04:45:14.158Z,27.75
2018-04-13T04:45:48.039Z,27.80
2018-04-13T04:46:21.910Z,26.85
2018-04-13T04:46:55.875Z,28.35
2018-04-13T04:47:29.758Z,26.60
2018-04-13T04:48:03.633Z,28.38
2018-04-13T04:48:37.516Z,27.10
2018-04-13T04:49:11.395Z,27.27
2018-04-13T04:49:45.263Z,26.23
2018-04-13T04:50:19.268Z,26.17
2018-04-13T04:50:53.142Z,25.90
2018-04-13T04:51:27.008Z,27.75
2018-04-13T04:52:00.888Z,27.08
2018-04-13T04:52:34.758Z,27.23
2018-04-13T04:53:08.688Z,25.08
2018-04-13T04:53:42.573Z,26.15
2018-04-13T04:54:16.443Z,25.08
2018-04-13T04:54:50.374Z,24.30
2018-04-13T04:55:24.243Z,26.17
2018-04-13T04:55:58.124Z,27.45
2018-04-13T04:56:32.016Z,25.98
2018-04-13T04:57:05.874Z,27.83
2018-04-13T04:57:39.744Z,27.13
2018-04-13T04:58:13.643Z,25.17
2018-04-13T04:58:47.683Z,28.23
2018-04-13T04:59:21.569Z,27.33
2018-04-13T04:59:55.448Z,26.75
2018-04-13T05:00:29.474Z,27.25
2018-04-13T05:01:03.350Z,26.20
2018-04-13T05:01:40.233Z,26.58
2018-04-13T05:02:14.918Z,26.58
2018-04-13T05:02:48.817Z,27.42
2018-04-13T05:03:22.702Z,27.80
2018-04-13T05:03:56.615Z,26.05
2018-04-13T05:04:30.481Z,28.62
2018-04-13T05:05:04.347Z,27.33
2018-04-13T05:05:38.224Z,26.85
2018-04-13T05:06:12.161Z,26.60
2018-04-13T05:06:46.028Z,25.95
2018-04-13T05:07:19.924Z,27.60
2018-04-13T05:07:53.798Z,26.25
2018-04-13T05:08:27.655Z,27.25
2018-04-13T05:09:01.581Z,26.52
2018-04-13T05:09:35.471Z,26.50
2018-04-13T05:10:09.345Z,26.50
2018-04-13T05:10:43.217Z,26.52
2018-04-13T05:11:17.094Z,27.10
2018-04-13T05:11:51.013Z,26.62
2018-04-13T05:12:25.076Z,25.12
2018-04-13T05:12:58.984Z,27.67
2018-04-13T05:13:32.878Z,27.10
2018-04-13T05:14:06.776Z,27.37
2018-04-13T05:14:41.015Z,26.83
2018-04-13T05:15:14.864Z,26.83
2018-04-13T05:15:48.937Z,25.62
2018-04-13T05:16:23.042Z,28.00
2018-04-13T05:16:56.977Z,26.40
2018-04-13T05:17:30.844Z,26.95
2018-04-13T05:18:05.029Z,26.87
2018-04-13T05:18:38.949Z,27.30
2018-04-13T05:19:12.875Z,26.00
2018-04-13T05:19:46.732Z,27.13
2018-04-13T05:20:20.622Z,26.30
2018-04-13T05:20:54.567Z,26.80
2018-04-13T05:21:28.429Z,27.30
2018-04-13T05:22:02.308Z,24.90
2018-04-13T05:22:36.245Z,27.83
2018-04-13T05:23:10.308Z,28.05
2018-04-13T05:23:44.195Z,28.20
2018-04-13T05:24:18.077Z,26.10
2018-04-13T05:24:51.949Z,26.90
2018-04-13T05:25:25.820Z,26.25
2018-04-13T05:25:59.687Z,27.02
2018-04-13T05:26:33.607Z,25.52
2018-04-13T05:27:07.494Z,27.52
2018-04-13T05:27:41.362Z,26.55
2018-04-13T05:28:15.248Z,28.52
2018-04-13T05:28:49.124Z,27.80
2018-04-13T05:29:23.044Z,25.62
2018-04-13T05:29:56.909Z,25.75
2018-04-13T05:30:30.778Z,27.48
2018-04-13T05:31:04.723Z,26.33
2018-04-13T05:31:38.615Z,25.00
2018-04-13T05:32:12.634Z,25.50
2018-04-13T05:32:46.551Z,26.70
2018-04-13T05:33:20.420Z,28.23
2018-04-13T05:33:54.433Z,26.95
2018-04-13T05:34:28.332Z,25.12
2018-04-13T05:35:02.507Z,26.92
2018-04-13T05:35:36.432Z,27.27
2018-04-13T05:36:10.336Z,27.23
2018-04-13T05:36:44.204Z,27.48
2018-04-13T05:37:18.091Z,26.65
2018-04-13T05:37:51.964Z,26.27
2018-04-13T05:38:25.861Z,26.75
2018-04-13T05:38:59.769Z,27.08
2018-04-13T05:39:33.681Z,27.98
2018-04-13T05:40:07.557Z,28.25
2018-04-13T05:40:41.559Z,27.25
2018-04-13T05:41:15.443Z,28.65
2018-04-13T05:41:49.304Z,26.20
2018-04-13T05:42:23.200Z,27.77
2018-04-13T05:42:57.056Z,27.40
2018-04-13T05:43:30.930Z,26.42
2018-04-13T05:44:04.804Z,25.85
2018-04-13T05:44:38.681Z,27.20
2018-04-13T05:45:12.600Z,27.58
2018-04-13T05:45:46.493Z,28.27
2018-04-13T05:46:20.823Z,27.95
2018-04-13T05:46:55.021Z,25.80
2018-04-13T05:47:28.904Z,28.02
2018-04-13T05:48:02.795Z,28.40
2018-04-13T05:48:36.664Z,25.80
2018-04-13T05:49:10.547Z,26.50
2018-04-13T05:49:44.444Z,26.83
2018-04-13T05:50:18.513Z,28.17
2018-04-13T05:50:52.374Z,28.30
2018-04-13T05:51:26.233Z,25.75
2018-04-13T05:52:00.111Z,26.80
2018-04-13T05:52:33.991Z,28.10
2018-04-13T05:53:08.178Z,27.05
2018-04-13T05:53:42.207Z,27.15
2018-04-13T05:54:16.084Z,25.75
2018-04-13T05:54:50.172Z,26.95
2018-04-13T05:55:24.035Z,27.80
2018-04-13T05:55:57.920Z,26.70
2018-04-13T05:56:31.797Z,26.27
2018-04-13T05:57:05.852Z,27.42
2018-04-13T05:57:39.726Z,28.15
2018-04-13T05:58:13.756Z,27.23
2018-04-13T05:58:47.661Z,25.90
2018-04-13T05:59:21.553Z,26.85
2018-04-13T05:59:55.424Z,26.92
2018-04-13T06:00:29.304Z,26.55
2018-04-13T06:01:04.088Z,26.33
2018-04-13T06:01:37.946Z,25.80
2018-04-13T06:02:11.841Z,27.25
2018-04-13T06:02:45.728Z,25.83
2018-04-13T06:03:19.638Z,26.12
2018-04-13T06:03:53.524Z,26.00
2018-04-13T06:04:27.427Z,26.87
2018-04-13T06:05:01.311Z,24.75
2018-04-13T06:05:35.215Z,25.90
2018-04-13T06:06:09.111Z,26.73
2018-04-13T06:06:43.013Z,26.83
2018-04-13T06:07:16.901Z,27.13
2018-04-13T06:07:50.769Z,27.02
2018-04-13T06:08:24.649Z,26.15
2018-04-13T06:08:58.864Z,26.25
2018-04-13T06:09:32.739Z,26.30
2018-04-13T06:10:06.635Z,26.08
2018-04-13T06:10:40.531Z,28.45
2018-04-13T06:11:14.424Z,28.20
2018-04-13T06:11:48.328Z,25.90
2018-04-13T06:12:22.223Z,27.05
2018-04-13T06:12:56.091Z,29.50
2018-04-13T06:13:29.968Z,26.67
2018-04-13T06:14:03.863Z,26.98
2018-04-13T06:14:37.733Z,26.40
2018-04-13T06:15:11.605Z,28.23
2018-04-13T06:15:45.660Z,27.83
2018-04-13T06:16:19.564Z,26.70
2018-04-13T06:16:53.568Z,27.45
2018-04-13T06:17:27.429Z,26.58
2018-04-13T06:18:01.296Z,26.00
2018-04-13T06:18:35.167Z,25.70
2018-04-13T06:19:09.066Z,27.52
2018-04-13T06:19:42.953Z,28.40
2018-04-13T06:20:16.898Z,26.45
2018-04-13T06:20:50.767Z,25.27
2018-04-13T06:21:28.267Z,26.77
2018-04-13T06:22:02.191Z,28.08
2018-04-13T06:22:36.114Z,27.87
2018-04-13T06:23:10.923Z,27.10
2018-04-13T06:23:44.838Z,27.23
2018-04-13T06:24:18.828Z,26.00
2018-04-13T06:24:52.684Z,26.87
2018-04-13T06:25:26.549Z,27.27
2018-04-13T06:26:00.433Z,24.83
2018-04-13T06:26:34.356Z,26.73
2018-04-13T06:27:08.294Z,25.37
2018-04-13T06:27:42.305Z,28.58
2018-04-13T06:28:16.194Z,26.75
2018-04-13T06:28:50.116Z,27.20
2018-04-13T06:29:24.018Z,27.15
2018-04-13T06:29:58.060Z,26.17
2018-04-13T06:30:31.991Z,25.80
2018-04-13T06:31:05.918Z,26.15
2018-04-13T06:31:39.819Z,27.02
2018-04-13T06:32:13.817Z,25.65
2018-04-13T06:32:47.742Z,26.17
2018-04-13T06:33:21.636Z,27.10
2018-04-13T06:33:55.529Z,26.35
2018-04-13T06:34:29.462Z,26.35
2018-04-13T06:35:03.371Z,27.08
2018-04-13T06:35:37.265Z,26.55
2018-04-13T06:36:11.164Z,25.92
2018-04-13T06:36:45.049Z,26.02
2018-04-13T06:37:19.572Z,27.85
2018-04-13T06:37:53.475Z,25.73
2018-04-13T06:38:27.360Z,27.67
2018-04-13T06:39:01.243Z,26.15
2018-04-13T06:39:35.209Z,27.40
2018-04-13T06:40:09.281Z,26.58
2018-04-13T06:40:43.245Z,25.67
2018-04-13T06:41:17.117Z,26.65
2018-04-13T06:41:50.997Z,25.90
2018-04-13T06:42:24.919Z,25.95
2018-04-13T06:42:58.801Z,26.50
2018-04-13T06:43:32.807Z,26.55
2018-04-13T06:44:06.689Z,26.80
2018-04-13T06:44:40.565Z,27.08
2018-04-13T06:45:14.502Z,25.58
2018-04-13T06:45:48.380Z,26.12
2018-04-13T06:46:22.250Z,25.50
2018-04-13T06:46:56.130Z,26.20
2018-04-13T06:47:30.038Z,26.25
2018-04-13T06:48:03.920Z,26.25
2018-04-13T06:48:37.850Z,26.55
2018-04-13T06:49:11.760Z,25.52
2018-04-13T06:49:45.675Z,25.10
2018-04-13T06:50:20.368Z,26.25
2018-04-13T06:50:54.449Z,26.87
2018-04-13T06:51:28.333Z,26.17
2018-04-13T06:52:02.376Z,27.60
2018-04-13T06:52:36.260Z,26.42
2018-04-13T06:53:10.157Z,26.45
2018-04-13T06:53:44.030Z,26.12
2018-04-13T06:54:17.923Z,26.70
2018-04-13T06:54:51.963Z,24.12
2018-04-13T06:55:25.834Z,27.02
2018-04-13T06:55:59.772Z,26.27
2018-04-13T06:56:33.681Z,26.08
2018-04-13T06:57:07.662Z,26.37
2018-04-13T06:57:41.545Z,26.12
2018-04-13T06:58:15.408Z,25.23
2018-04-13T06:58:49.339Z,25.95
2018-04-13T06:59:23.212Z,25.33
2018-04-13T06:59:57.081Z,25.12
2018-04-13T07:00:31.018Z,24.75
2018-04-13T07:01:04.973Z,26.40
2018-04-13T07:01:38.853Z,24.77
2018-04-13T07:02:12.755Z,24.50
2018-04-13T07:02:46.624Z,26.27
2018-04-13T07:03:20.526Z,25.02
2018-04-13T07:03:54.447Z,26.45
2018-04-13T07:04:28.322Z,24.52
2018-04-13T07:05:02.193Z,23.98
2018-04-13T07:05:36.064Z,25.37
2018-04-13T07:06:09.960Z,25.20
2018-04-13T07:06:43.828Z,24.35
2018-04-13T07:07:17.703Z,24.23
2018-04-13T07:07:51.586Z,24.45
2018-04-13T07:08:25.495Z,23.60
2018-04-13T07:08:59.347Z,22.65
2018-04-13T07:09:33.209Z,23.48
2018-04-13T07:10:07.359Z,23.25
2018-04-13T07:10:41.385Z,26.05
2018-04-13T07:11:15.267Z,23.15
2018-04-13T07:11:49.135Z,22.65
2018-04-13T07:12:23.040Z,22.77
2018-04-13T07:12:56.936Z,22.58
2018-04-13T07:13:30.826Z,23.17
2018-04-13T07:14:04.688Z,23.42
2018-04-13T07:14:38.563Z,22.17
2018-04-13T07:15:12.415Z,22.65
2018-04-13T07:15:46.278Z,24.08
2018-04-13T07:16:20.151Z,22.70
2018-04-13T07:16:54.034Z,22.13
2018-04-13T07:17:27.895Z,23.65
2018-04-13T07:18:01.781Z,22.75
2018-04-13T07:18:35.699Z,22.20